^^
B2 Weather Station Historical Data
Daily Summary for January 1, 2018 Units:  Metric    English   Both
Daily Weekly Monthly Yearly Custom
  High: Low: Average:
Temperature: -18.8 °C -24.1 °C -21.7 °C
Dew Point: -22.8 °C -27.2 °C -25.1 °C
Humidity: 80% 68% 74%
Wind Speed: 24.1km/h 3.7km/h 13.8km/h
Wind Gust: 24.1km/h - -
Wind- - West
Pressure: 1043.9 hPa 1040.5 hPa -
Precipitation: 0 mm    
Historical Graphs
 
 
Tabular Data for January 1, 2018
Time Temperature Dew Point Pressure Wind Wind Speed Wind Gust Humidity Rainfall Rate (Hourly) solar
00:02 -19.7 °C -23.1 °C 1040.5 hPa WNW 18.5 km/h 18.5 km/h 74% 0 mm 0.0 W/m2
00:03 -19.7 °C -23.2 °C 1040.5 hPa West 9.3 km/h 9.3 km/h 74% 0 mm 0.0 W/m2
00:07 -19.8 °C -23.2 °C 1040.5 hPa WNW 11.1 km/h 11.1 km/h 74% 0 mm 0.0 W/m2
00:09 -19.8 °C -23.2 °C 1040.5 hPa WNW 22.2 km/h 22.2 km/h 74% 0 mm 0.0 W/m2
00:14 -19.8 °C -23.3 °C 1040.5 hPa WNW 9.3 km/h 9.3 km/h 74% 0 mm 0.0 W/m2
00:16 -19.9 °C -23.3 °C 1040.5 hPa NW 14.8 km/h 14.8 km/h 74% 0 mm 0.0 W/m2
00:19 -19.9 °C -23.4 °C 1040.5 hPa WNW 18.5 km/h 18.5 km/h 74% 0 mm 0.0 W/m2
00:21 -19.9 °C -23.3 °C 1040.5 hPa WNW 18.5 km/h 18.5 km/h 74% 0 mm 0.0 W/m2
00:26 -19.9 °C -23.3 °C 1040.5 hPa NW 16.7 km/h 16.7 km/h 74% 0 mm 0.0 W/m2
00:30 -19.9 °C -23.3 °C 1040.5 hPa WNW 20.4 km/h 20.4 km/h 74% 0 mm 0.0 W/m2
00:35 -19.9 °C -23.3 °C 1040.5 hPa NW 18.5 km/h 18.5 km/h 74% 0 mm 0.0 W/m2
00:36 -19.9 °C -23.3 °C 1040.5 hPa NW 14.8 km/h 14.8 km/h 74% 0 mm 0.0 W/m2
00:41 -20 °C -23.4 °C 1040.5 hPa West 14.8 km/h 14.8 km/h 74% 0 mm 0.0 W/m2
00:42 -20 °C -23.4 °C 1040.5 hPa WNW 18.5 km/h 18.5 km/h 74% 0 mm 0.0 W/m2
00:44 -20.1 °C -23.5 °C 1040.5 hPa West 18.5 km/h 18.5 km/h 74% 0 mm 0.0 W/m2
00:47 -20.1 °C -23.6 °C 1040.9 hPa WNW 16.1 km/h 16.1 km/h 74% 0 mm 0.0 W/m2
00:52 -20.2 °C -23.7 °C 1040.9 hPa NW 16.7 km/h 16.7 km/h 74% 0 mm 0.0 W/m2
00:53 -20.2 °C -23.7 °C 1040.9 hPa WNW 16.7 km/h 16.7 km/h 74% 0 mm 0.0 W/m2
00:57 -20.3 °C -23.7 °C 1040.9 hPa WNW 14.8 km/h 14.8 km/h 74% 0 mm 0.0 W/m2
00:58 -20.3 °C -23.8 °C 1040.9 hPa WNW 17.7 km/h 17.7 km/h 74% 0 mm 0.0 W/m2
00:59 -20.3 °C -23.8 °C 1040.9 hPa West 18.5 km/h 18.5 km/h 74% 0 mm 0.0 W/m2
01:02 -20.3 °C -23.9 °C 1040.9 hPa WNW 16.7 km/h 16.7 km/h 73% 0 mm 0.0 W/m2
01:05 -20.4 °C -24 °C 1040.9 hPa WNW 14.8 km/h 14.8 km/h 73% 0 mm 0.0 W/m2
01:09 -20.4 °C -24.1 °C 1040.9 hPa WNW 13 km/h 13 km/h 73% 0 mm 0.0 W/m2
01:12 -20.4 °C -24.1 °C 1040.9 hPa WNW 18.5 km/h 18.5 km/h 73% 0 mm 0.0 W/m2
01:15 -20.5 °C -24.1 °C 1040.9 hPa WNW 18.5 km/h 18.5 km/h 73% 0 mm 0.0 W/m2
01:19 -20.6 °C -24.1 °C 1040.9 hPa WNW 14.8 km/h 14.8 km/h 73% 0 mm 0.0 W/m2
01:20 -20.6 °C -24.2 °C 1040.9 hPa WNW 16.7 km/h 16.7 km/h 73% 0 mm 0.0 W/m2
01:24 -20.7 °C -24.2 °C 1040.9 hPa WNW 18.5 km/h 18.5 km/h 73% 0 mm 0.0 W/m2
01:29 -20.7 °C -24.2 °C 1040.9 hPa WNW 14.5 km/h 14.5 km/h 73% 0 mm 0.0 W/m2
01:32 -20.7 °C -24.3 °C 1040.9 hPa NW 22.2 km/h 22.2 km/h 73% 0 mm 0.0 W/m2
01:33 -20.7 °C -24.3 °C 1040.9 hPa WNW 22.2 km/h 22.2 km/h 73% 0 mm 0.0 W/m2
01:38 -20.8 °C -24.5 °C 1040.9 hPa WNW 18.5 km/h 18.5 km/h 72% 0 mm 0.0 W/m2
01:39 -20.8 °C -24.5 °C 1040.9 hPa WNW 16.7 km/h 16.7 km/h 72% 0 mm 0.0 W/m2
01:44 -20.8 °C -24.6 °C 1040.9 hPa WNW 20.4 km/h 20.4 km/h 72% 0 mm 0.0 W/m2
01:45 -20.8 °C -24.6 °C 1041.2 hPa WNW 18.5 km/h 18.5 km/h 72% 0 mm 0.0 W/m2
01:46 -20.8 °C -24.6 °C 1041.2 hPa West 16.7 km/h 16.7 km/h 72% 0 mm 0.0 W/m2
01:50 -20.9 °C -24.6 °C 1041.2 hPa West 22.2 km/h 22.2 km/h 72% 0 mm 0.0 W/m2
01:51 -20.9 °C -24.6 °C 1041.2 hPa WNW 18.5 km/h 18.5 km/h 72% 0 mm 0.0 W/m2
01:55 -20.9 °C -24.6 °C 1041.2 hPa NW 22.2 km/h 22.2 km/h 72% 0 mm 0.0 W/m2
02:00 -20.9 °C -24.7 °C 1041.2 hPa WNW 16.7 km/h 16.7 km/h 72% 0 mm 0.0 W/m2
02:01 -20.9 °C -24.7 °C 1041.2 hPa WNW 20.4 km/h 20.4 km/h 72% 0 mm 0.0 W/m2
02:02 -20.9 °C -24.6 °C 1041.2 hPa West 18.5 km/h 18.5 km/h 72% 0 mm 0.0 W/m2
02:12 -21 °C -24.7 °C 1041.2 hPa WNW 18.5 km/h 18.5 km/h 72% 0 mm 0.0 W/m2
02:14 -21 °C -24.7 °C 1041.2 hPa WNW 18.5 km/h 18.5 km/h 72% 0 mm 0.0 W/m2
02:19 -21.1 °C -24.8 °C 1041.2 hPa WNW 18.5 km/h 18.5 km/h 72% 0 mm 0.0 W/m2
02:24 -21.1 °C -24.9 °C 1041.2 hPa WNW 18.5 km/h 18.5 km/h 71% 0 mm 0.0 W/m2
02:26 -21.1 °C -25 °C 1041.2 hPa West 16.7 km/h 16.7 km/h 71% 0 mm 0.0 W/m2
02:31 -21.2 °C -25.1 °C 1041.2 hPa West 18.5 km/h 18.5 km/h 71% 0 mm 0.0 W/m2
02:32 -21.2 °C -25.1 °C 1041.2 hPa WNW 18.5 km/h 18.5 km/h 71% 0 mm 0.0 W/m2
02:37 -21.3 °C -25 °C 1041.2 hPa WSW 18.5 km/h 18.5 km/h 72% 0 mm 0.0 W/m2
02:40 -21.3 °C -25 °C 1041.2 hPa WNW 13 km/h 13 km/h 72% 0 mm 0.0 W/m2
02:42 -21.3 °C -25.1 °C 1041.2 hPa WNW 18.5 km/h 18.5 km/h 72% 0 mm 0.0 W/m2
02:45 -21.4 °C -25.1 °C 1041.2 hPa NW 14.8 km/h 14.8 km/h 72% 0 mm 0.0 W/m2
02:48 -21.4 °C -25.2 °C 1041.2 hPa West 18.5 km/h 18.5 km/h 72% 0 mm 0.0 W/m2
02:50 -21.4 °C -25.2 °C 1041.2 hPa WNW 22.5 km/h 22.5 km/h 72% 0 mm 0.0 W/m2
02:54 -21.5 °C -25.1 °C 1041.2 hPa WNW 20.9 km/h 20.9 km/h 73% 0 mm 0.0 W/m2
02:55 -21.5 °C -25.1 °C 1041.2 hPa WNW 20.9 km/h 20.9 km/h 73% 0 mm 0.0 W/m2
03:00 -21.6 °C -25.2 °C 1041.2 hPa West 20.4 km/h 20.4 km/h 73% 0 mm 0.0 W/m2
03:02 -21.7 °C -25.2 °C 1041.2 hPa WNW 18.5 km/h 18.5 km/h 73% 0 mm 0.0 W/m2
03:03 -21.7 °C -25.2 °C 1041.2 hPa West 18.5 km/h 18.5 km/h 73% 0 mm 0.0 W/m2
03:08 -21.8 °C -25.3 °C 1041.2 hPa West 18.5 km/h 18.5 km/h 73% 0 mm 0.0 W/m2
03:11 -21.8 °C -25.4 °C 1041.2 hPa WNW 18.5 km/h 18.5 km/h 73% 0 mm 0.0 W/m2
03:14 -21.9 °C -25.4 °C 1041.2 hPa West 18.5 km/h 18.5 km/h 73% 0 mm 0.0 W/m2
03:16 -21.9 °C -25.5 °C 1041.2 hPa WNW 22.2 km/h 22.2 km/h 73% 0 mm 0.0 W/m2
03:21 -21.9 °C -25.3 °C 1041.2 hPa WNW 18.5 km/h 18.5 km/h 74% 0 mm 0.0 W/m2
03:22 -21.9 °C -25.3 °C 1041.2 hPa West 18.5 km/h 18.5 km/h 74% 0 mm 0.0 W/m2
03:27 -22.1 °C -25.6 °C 1041.2 hPa WNW 8 km/h 8 km/h 73% 0 mm 0.0 W/m2
03:30 -22.1 °C -25.7 °C 1041.2 hPa WNW 13 km/h 13 km/h 73% 0 mm 0.0 W/m2
03:32 -22.2 °C -25.6 °C 1041.2 hPa WNW 14.8 km/h 14.8 km/h 74% 0 mm 0.0 W/m2
03:37 -22.2 °C -25.7 °C 1041.2 hPa WNW 18.5 km/h 18.5 km/h 73% 0 mm 0.0 W/m2
03:40 -22.2 °C -25.7 °C 1041.2 hPa WNW 18.5 km/h 18.5 km/h 73% 0 mm 0.0 W/m2
03:42 -22.1 °C -25.7 °C 1041.2 hPa WNW 18.5 km/h 18.5 km/h 73% 0 mm 0.0 W/m2
03:45 -22.1 °C -25.4 °C 1041.2 hPa West 20.4 km/h 20.4 km/h 74% 0 mm 0.0 W/m2
03:50 -22.1 °C -25.4 °C 1041.2 hPa WNW 16.7 km/h 16.7 km/h 74% 0 mm 0.0 W/m2
03:51 -22.1 °C -25.5 °C 1041.2 hPa West 12.9 km/h 12.9 km/h 74% 0 mm 0.0 W/m2
03:56 -22.2 °C -25.6 °C 1041.2 hPa NW 14.8 km/h 14.8 km/h 74% 0 mm 0.0 W/m2
03:57 -22.2 °C -25.6 °C 1041.2 hPa WNW 16.1 km/h 16.1 km/h 74% 0 mm 0.0 W/m2
04:02 -22.2 °C -25.6 °C 1041.2 hPa WNW 16.7 km/h 16.7 km/h 74% 0 mm 0.0 W/m2
04:03 -22.2 °C -25.6 °C 1041.2 hPa NW 19.3 km/h 19.3 km/h 74% 0 mm 0.0 W/m2
04:05 -22.2 °C -25.6 °C 1041.2 hPa WNW 14.8 km/h 14.8 km/h 74% 0 mm 0.0 W/m2
04:09 -22.2 °C -25.6 °C 1041.2 hPa WNW 16.7 km/h 16.7 km/h 74% 0 mm 0.0 W/m2
04:11 -22.2 °C -25.6 °C 1041.2 hPa NW 18.5 km/h 18.5 km/h 74% 0 mm 0.0 W/m2
04:16 -22.3 °C -25.6 °C 1041.2 hPa WNW 22.2 km/h 22.2 km/h 75% 0 mm 0.0 W/m2
04:17 -22.3 °C -25.6 °C 1041.5 hPa WNW 16.7 km/h 16.7 km/h 75% 0 mm 0.0 W/m2
04:21 -22.3 °C -25.6 °C 1041.5 hPa West 13 km/h 13 km/h 75% 0 mm 0.0 W/m2
04:26 -22.4 °C -25.6 °C 1041.5 hPa WNW 16.7 km/h 16.7 km/h 75% 0 mm 0.0 W/m2
04:28 -22.4 °C -25.7 °C 1041.5 hPa WNW 16.7 km/h 16.7 km/h 75% 0 mm 0.0 W/m2
04:29 -22.4 °C -25.7 °C 1041.5 hPa WNW 16.7 km/h 16.7 km/h 75% 0 mm 0.0 W/m2
04:34 -22.5 °C -25.7 °C 1041.5 hPa WNW 16.7 km/h 16.7 km/h 75% 0 mm 0.0 W/m2
04:37 -22.5 °C -25.7 °C 1041.5 hPa NW 18.5 km/h 18.5 km/h 75% 0 mm 0.0 W/m2
04:38 -22.5 °C -25.7 °C 1041.5 hPa WNW 13 km/h 13 km/h 75% 0 mm 0.0 W/m2
04:43 -22.6 °C -25.8 °C 1041.5 hPa WNW 11.3 km/h 11.3 km/h 75% 0 mm 0.0 W/m2
04:44 -22.6 °C -25.8 °C 1041.5 hPa WNW 18.5 km/h 18.5 km/h 75% 0 mm 0.0 W/m2
04:49 -22.6 °C -25.8 °C 1041.5 hPa WNW 11.1 km/h 11.1 km/h 75% 0 mm 0.0 W/m2
04:54 -22.7 °C -25.9 °C 1041.5 hPa WNW 14.8 km/h 14.8 km/h 75% 0 mm 0.0 W/m2
04:59 -22.8 °C -26 °C 1041.5 hPa WNW 16.7 km/h 16.7 km/h 75% 0 mm 0.0 W/m2
05:00 -22.7 °C -25.9 °C 1041.5 hPa WNW 16.7 km/h 16.7 km/h 75% 0 mm 0.0 W/m2
05:05 -22.8 °C -25.8 °C 1041.5 hPa WNW 20.4 km/h 20.4 km/h 76% 0 mm 0.0 W/m2
05:07 -22.8 °C -25.8 °C 1041.5 hPa NW 18.5 km/h 18.5 km/h 76% 0 mm 0.0 W/m2
05:12 -22.8 °C -25.9 °C 1041.5 hPa WNW 14.8 km/h 14.8 km/h 76% 0 mm 0.0 W/m2
05:14 -22.9 °C -25.9 °C 1041.5 hPa NW 18.5 km/h 18.5 km/h 76% 0 mm 0.0 W/m2
05:15 -22.9 °C -25.9 °C 1041.5 hPa NW 14.8 km/h 14.8 km/h 76% 0 mm 0.0 W/m2
05:19 -22.9 °C -26 °C 1041.5 hPa WNW 14.8 km/h 14.8 km/h 76% 0 mm 0.0 W/m2
05:21 -22.9 °C -26 °C 1041.5 hPa WNW 11.1 km/h 11.1 km/h 76% 0 mm 0.0 W/m2
05:25 -22.9 °C -26 °C 1041.9 hPa WNW 16.7 km/h 16.7 km/h 76% 0 mm 0.0 W/m2
05:30 -23 °C -26.1 °C 1041.9 hPa WNW 13 km/h 13 km/h 76% 0 mm 0.0 W/m2
05:31 -22.9 °C -26 °C 1041.9 hPa WNW 14.8 km/h 14.8 km/h 76% 0 mm 0.0 W/m2
05:36 -23 °C -26.1 °C 1041.9 hPa WNW 13 km/h 13 km/h 76% 0 mm 0.0 W/m2
05:37 -23 °C -26.1 °C 1041.9 hPa WNW 13 km/h 13 km/h 76% 0 mm 0.0 W/m2
05:42 -23 °C -26.1 °C 1041.9 hPa WNW 16.7 km/h 16.7 km/h 76% 0 mm 0.0 W/m2
05:44 -23 °C -26.1 °C 1041.9 hPa WNW 16.7 km/h 16.7 km/h 76% 0 mm 0.0 W/m2
05:49 -23 °C -26.1 °C 1041.9 hPa WNW 12.9 km/h 12.9 km/h 76% 0 mm 0.0 W/m2
05:50 -23 °C -26.1 °C 1041.9 hPa WNW 12.9 km/h 12.9 km/h 76% 0 mm 0.0 W/m2
05:51 -23.1 °C -26.1 °C 1041.9 hPa West 13 km/h 13 km/h 76% 0 mm 0.0 W/m2
05:55 -23.1 °C -26.1 °C 1041.9 hPa WNW 13 km/h 13 km/h 76% 0 mm 0.0 W/m2
06:00 -23.1 °C -26.1 °C 1041.9 hPa West 16.7 km/h 16.7 km/h 76% 0 mm 0.0 W/m2
06:02 -23.1 °C -26.1 °C 1041.9 hPa WNW 14.8 km/h 14.8 km/h 76% 0 mm 0.0 W/m2
06:07 -23.1 °C -26.2 °C 1041.9 hPa WNW 18.5 km/h 18.5 km/h 76% 0 mm 0.0 W/m2
06:11 -23.1 °C -26.2 °C 1041.9 hPa West 13 km/h 13 km/h 76% 0 mm 0.0 W/m2
06:15 -23.2 °C -26.2 °C 1041.9 hPa WNW 13 km/h 13 km/h 76% 0 mm 0.0 W/m2
06:20 -23.2 °C -26.3 °C 1041.9 hPa West 14.8 km/h 14.8 km/h 76% 0 mm 0.0 W/m2
06:24 -23.2 °C -26.3 °C 1041.9 hPa WNW 14.8 km/h 14.8 km/h 76% 0 mm 0.0 W/m2
06:25 -23.2 °C -26.3 °C 1041.9 hPa NW 14.8 km/h 14.8 km/h 76% 0 mm 0.0 W/m2
06:30 -23.3 °C -26.3 °C 1042.2 hPa WNW 11.1 km/h 11.1 km/h 76% 0 mm 0.0 W/m2
06:31 -23.3 °C -26.3 °C 1042.2 hPa WNW 11.1 km/h 11.1 km/h 76% 0 mm 0.0 W/m2
06:36 -23.4 °C -26.5 °C 1042.2 hPa West 13 km/h 13 km/h 76% 0 mm 0.0 W/m2
06:37 -23.4 °C -26.5 °C 1042.2 hPa West 16.7 km/h 16.7 km/h 76% 0 mm 0.0 W/m2
06:38 -23.4 °C -26.5 °C 1042.2 hPa WNW 16.7 km/h 16.7 km/h 76% 0 mm 0.0 W/m2
06:43 -23.6 °C -26.7 °C 1042.2 hPa WNW 16.7 km/h 16.7 km/h 76% 0 mm 0.0 W/m2
06:44 -23.7 °C -26.7 °C 1042.2 hPa WNW 14.8 km/h 14.8 km/h 76% 0 mm 0.0 W/m2
06:46 -23.7 °C -26.7 °C 1042.2 hPa WNW 9.3 km/h 9.3 km/h 76% 0 mm 0.0 W/m2
06:49 -23.7 °C -26.8 °C 1042.2 hPa WNW 16.7 km/h 16.7 km/h 76% 0 mm 0.0 W/m2
06:54 -23.8 °C -26.9 °C 1042.2 hPa WNW 8 km/h 8 km/h 76% 0 mm 0.0 W/m2
06:55 -23.8 °C -26.9 °C 1042.2 hPa WNW 7.4 km/h 7.7 km/h 76% 0 mm 0.0 W/m2
06:59 -23.9 °C -27 °C 1042.2 hPa WNW 13 km/h 13 km/h 76% 0 mm 0.0 W/m2
07:01 -23.9 °C -27 °C 1042.2 hPa WNW 11.3 km/h 11.3 km/h 76% 0 mm 0.0 W/m2
07:04 -24 °C -27.1 °C 1042.2 hPa WNW 11.1 km/h 11.1 km/h 76% 0 mm 0.0 W/m2
07:07 -24 °C -27.1 °C 1042.2 hPa WNW 13 km/h 13 km/h 76% 0 mm 0.0 W/m2
07:09 -24 °C -26.9 °C 1042.2 hPa West 14.8 km/h 14.8 km/h 77% 0 mm 0.0 W/m2
07:14 -24 °C -26.9 °C 1042.5 hPa West 5.6 km/h 5.6 km/h 77% 0 mm 0.0 W/m2
07:19 -24 °C -26.9 °C 1042.2 hPa West 13 km/h 13 km/h 77% 0 mm 5.0 W/m2
07:20 -24 °C -26.9 °C 1042.2 hPa West 13 km/h 13 km/h 77% 0 mm 7.0 W/m2
07:22 -23.3 °C -26.2 °C 1042.2 hPa WNW 18.5 km/h 18.5 km/h 77% 0 mm 7.0 W/m2
07:25 -22.6 °C -26.1 °C 1042.5 hPa WSW 11.1 km/h 11.1 km/h 73% 0 mm 9.0 W/m2
07:30 -23.6 °C -27.1 °C 1042.5 hPa West 11.1 km/h 11.1 km/h 73% 0 mm 11.0 W/m2
07:34 -23.8 °C -27.2 °C 1042.5 hPa West 16.7 km/h 16.7 km/h 74% 0 mm 12.0 W/m2
07:39 -24 °C -27.2 °C 1042.5 hPa West 13 km/h 13 km/h 75% 0 mm 16.0 W/m2
07:40 -24 °C -27.1 °C 1042.5 hPa West 13 km/h 13 km/h 76% 0 mm 18.0 W/m2
07:45 -24.1 °C -27.1 °C 1042.5 hPa West 13 km/h 13 km/h 76% 0 mm 25.0 W/m2
07:50 -24.1 °C -27.1 °C 1042.5 hPa WNW 13 km/h 13 km/h 76% 0 mm 33.0 W/m2
07:55 -24 °C -27.1 °C 1042.5 hPa WNW 13 km/h 13 km/h 76% 0 mm 44.0 W/m2
08:00 -23.9 °C -27 °C 1042.5 hPa WNW 9.3 km/h 9.3 km/h 76% 0 mm 53.0 W/m2
08:03 -23.9 °C -26.9 °C 1042.9 hPa NW 13 km/h 13 km/h 76% 0 mm 63.0 W/m2
08:08 -23.9 °C -26.9 °C 1042.9 hPa WSW 11.1 km/h 11.1 km/h 76% 0 mm 72.0 W/m2
08:09 -23.9 °C -26.9 °C 1042.9 hPa West 16.7 km/h 16.7 km/h 76% 0 mm 77.0 W/m2
08:14 -23.8 °C -26.9 °C 1042.9 hPa West 14.8 km/h 14.8 km/h 76% 0 mm 91.0 W/m2
08:15 -23.8 °C -26.9 °C 1042.9 hPa West 18.5 km/h 18.5 km/h 76% 0 mm 93.0 W/m2
08:20 -23.8 °C -26.8 °C 1042.9 hPa WSW 16.7 km/h 16.7 km/h 76% 0 mm 107.0 W/m2
08:21 -23.8 °C -26.8 °C 1042.9 hPa West 18.5 km/h 18.5 km/h 76% 0 mm 111.0 W/m2
08:25 -23.7 °C -26.8 °C 1042.9 hPa West 13 km/h 13 km/h 76% 0 mm 123.0 W/m2
08:30 -23.7 °C -26.7 °C 1042.9 hPa West 18.5 km/h 18.5 km/h 76% 0 mm 137.0 W/m2
08:31 -23.7 °C -26.7 °C 1042.9 hPa West 18.5 km/h 18.5 km/h 76% 0 mm 139.0 W/m2
08:36 -23.6 °C -26.6 °C 1042.9 hPa West 14.8 km/h 14.8 km/h 76% 0 mm 158.0 W/m2
08:38 -23.6 °C -26.6 °C 1042.9 hPa West 16.7 km/h 16.7 km/h 76% 0 mm 163.0 W/m2
08:41 -23.5 °C -26.6 °C 1042.9 hPa West 16.7 km/h 16.7 km/h 76% 0 mm 171.0 W/m2
08:46 -23.4 °C -26.5 °C 1043.2 hPa West 14.8 km/h 14.8 km/h 76% 0 mm 186.0 W/m2
08:51 -23.3 °C -26.5 °C 1043.2 hPa WNW 18.5 km/h 18.5 km/h 75% 0 mm 206.0 W/m2
08:53 -23.3 °C -26.5 °C 1043.2 hPa WNW 16.7 km/h 16.7 km/h 75% 0 mm 209.0 W/m2
08:58 -23.2 °C -26.4 °C 1043.2 hPa WNW 20.4 km/h 20.4 km/h 75% 0 mm 223.0 W/m2
09:00 -23.2 °C -26.4 °C 1043.2 hPa West 14.5 km/h 14.5 km/h 75% 0 mm 232.0 W/m2
09:03 -23.1 °C -26.3 °C 1043.2 hPa WNW 18.5 km/h 18.5 km/h 75% 0 mm 239.0 W/m2
09:08 -22.9 °C -26.1 °C 1043.2 hPa West 13 km/h 13 km/h 75% 0 mm 253.0 W/m2
09:13 -22.8 °C -26.1 °C 1043.2 hPa West 16.7 km/h 16.7 km/h 74% 0 mm 267.0 W/m2
09:18 -22.7 °C -26.1 °C 1043.2 hPa WNW 18.5 km/h 18.5 km/h 74% 0 mm 279.0 W/m2
09:19 -22.7 °C -26.1 °C 1043.2 hPa WNW 18.5 km/h 18.5 km/h 74% 0 mm 279.0 W/m2
09:24 -22.6 °C -25.9 °C 1043.2 hPa West 16.7 km/h 16.7 km/h 74% 0 mm 292.0 W/m2
09:29 -22.4 °C -25.9 °C 1043.6 hPa West 14.8 km/h 14.8 km/h 73% 0 mm 302.0 W/m2
09:30 -22.4 °C -25.9 °C 1043.2 hPa WNW 16.1 km/h 16.1 km/h 73% 0 mm 306.0 W/m2
09:35 -22.3 °C -25.8 °C 1043.6 hPa West 9.3 km/h 9.3 km/h 73% 0 mm 315.0 W/m2
09:40 -22.2 °C -25.7 °C 1043.6 hPa West 16.7 km/h 16.7 km/h 73% 0 mm 325.0 W/m2
09:41 -22.2 °C -25.7 °C 1043.6 hPa WNW 16.7 km/h 16.7 km/h 73% 0 mm 327.0 W/m2
09:46 -22.2 °C -25.7 °C 1043.6 hPa WNW 13 km/h 13 km/h 73% 0 mm 334.0 W/m2
09:47 -22.1 °C -25.7 °C 1043.6 hPa WNW 18.5 km/h 18.5 km/h 73% 0 mm 338.0 W/m2
09:52 -22.1 °C -25.7 °C 1043.6 hPa WNW 16.7 km/h 16.7 km/h 72% 0 mm 346.0 W/m2
09:53 -22.1 °C -25.7 °C 1043.6 hPa WNW 16.7 km/h 16.7 km/h 72% 0 mm 346.0 W/m2
09:54 -22 °C -25.6 °C 1043.6 hPa NW 18.5 km/h 18.5 km/h 73% 0 mm 352.0 W/m2
09:59 -21.9 °C -25.4 °C 1043.6 hPa NW 13 km/h 13 km/h 73% 0 mm 360.0 W/m2
10:04 -21.7 °C -25.2 °C 1043.6 hPa West 14.8 km/h 14.8 km/h 73% 0 mm 367.0 W/m2
10:05 -21.6 °C -25.2 °C 1043.6 hPa WNW 14.8 km/h 14.8 km/h 73% 0 mm 369.0 W/m2
10:10 -21.6 °C -25.3 °C 1043.6 hPa WNW 18.5 km/h 18.5 km/h 72% 0 mm 378.0 W/m2
10:12 -21.5 °C -25.2 °C 1043.6 hPa West 11.1 km/h 11.1 km/h 72% 0 mm 381.0 W/m2
10:17 -21.4 °C -25.1 °C 1043.6 hPa WNW 7.4 km/h 7.4 km/h 72% 0 mm 388.0 W/m2
10:18 -21.3 °C -25.1 °C 1043.6 hPa WNW 12.9 km/h 12.9 km/h 72% 0 mm 390.0 W/m2
10:21 -21.3 °C -25.2 °C 1043.6 hPa WNW 16.7 km/h 16.7 km/h 71% 0 mm 396.0 W/m2
10:25 -21.2 °C -25.1 °C 1043.6 hPa WNW 14.8 km/h 14.8 km/h 71% 0 mm 401.0 W/m2
10:28 -21.2 °C -25.1 °C 1043.6 hPa WNW 9.3 km/h 9.3 km/h 71% 0 mm 406.0 W/m2
10:33 -21 °C -24.9 °C 1043.6 hPa NW 13 km/h 13 km/h 71% 0 mm 413.0 W/m2
10:34 -21 °C -24.9 °C 1043.6 hPa WNW 16.7 km/h 16.7 km/h 71% 0 mm 411.0 W/m2
10:35 -21 °C -24.9 °C 1043.6 hPa WNW 16.7 km/h 16.7 km/h 71% 0 mm 417.0 W/m2
10:39 -20.9 °C -24.9 °C 1043.6 hPa WNW 18.5 km/h 18.5 km/h 70% 0 mm 420.0 W/m2
10:40 -20.9 °C -25 °C 1043.6 hPa WNW 18.5 km/h 18.5 km/h 70% 0 mm 420.0 W/m2
10:42 -20.9 °C -24.9 °C 1043.6 hPa SW 18.5 km/h 18.5 km/h 70% 0 mm 424.0 W/m2
10:46 -20.9 °C -24.9 °C 1043.6 hPa WNW 16.7 km/h 16.7 km/h 70% 0 mm 429.0 W/m2
10:51 -20.9 °C -25.1 °C 1043.6 hPa WSW 14.8 km/h 14.8 km/h 69% 0 mm 434.0 W/m2
10:52 -20.9 °C -25.1 °C 1043.6 hPa West 14.8 km/h 14.8 km/h 69% 0 mm 436.0 W/m2
10:53 -20.9 °C -25.1 °C 1043.6 hPa WNW 16.7 km/h 16.7 km/h 69% 0 mm 438.0 W/m2
10:58 -20.7 °C -24.8 °C 1043.2 hPa WNW 16.7 km/h 16.7 km/h 70% 0 mm 443.0 W/m2
10:59 -20.7 °C -24.8 °C 1043.6 hPa WNW 16.7 km/h 16.7 km/h 70% 0 mm 441.0 W/m2
11:04 -20.7 °C -24.8 °C 1043.6 hPa WNW 9.3 km/h 9.3 km/h 70% 0 mm 445.0 W/m2
11:05 -20.7 °C -24.8 °C 1043.6 hPa WNW 9.3 km/h 9.3 km/h 70% 0 mm 446.0 W/m2
11:10 -20.6 °C -24.8 °C 1043.6 hPa West 14.8 km/h 14.8 km/h 69% 0 mm 450.0 W/m2
11:15 -20.5 °C -24.7 °C 1043.2 hPa WNW 5.6 km/h 5.6 km/h 69% 0 mm 450.0 W/m2
11:17 -20.4 °C -24.7 °C 1043.2 hPa WNW 8 km/h 8 km/h 69% 0 mm 454.0 W/m2
11:22 -20.3 °C -24.6 °C 1043.2 hPa WSW 11.3 km/h 11.3 km/h 69% 0 mm 457.0 W/m2
11:24 -20.3 °C -24.5 °C 1043.2 hPa West 11.1 km/h 11.1 km/h 69% 0 mm 459.0 W/m2
11:29 -20.1 °C -24.3 °C 1043.2 hPa WSW 7.4 km/h 7.4 km/h 69% 0 mm 461.0 W/m2
11:34 -20 °C -24.4 °C 1043.2 hPa WSW 18.5 km/h 18.5 km/h 68% 0 mm 462.0 W/m2
11:37 -19.9 °C -24.3 °C 1043.2 hPa West 5.6 km/h 5.6 km/h 68% 0 mm 464.0 W/m2
11:42 -19.8 °C -24.2 °C 1042.9 hPa WSW 14.8 km/h 14.8 km/h 68% 0 mm 466.0 W/m2
11:47 -19.8 °C -24.2 °C 1042.9 hPa WSW 14.8 km/h 14.8 km/h 68% 0 mm 466.0 W/m2
11:52 -19.7 °C -23.9 °C 1042.9 hPa WNW 17.7 km/h 17.7 km/h 69% 0 mm 466.0 W/m2
11:53 -19.6 °C -23.8 °C 1042.9 hPa WNW 18.5 km/h 18.5 km/h 69% 0 mm 466.0 W/m2
11:54 -19.6 °C -23.8 °C 1042.9 hPa WNW 18.5 km/h 18.5 km/h 69% 0 mm 468.0 W/m2
11:58 -19.6 °C -24 °C 1042.9 hPa West 18.5 km/h 18.5 km/h 68% 0 mm 468.0 W/m2
12:03 -19.7 °C -24.1 °C 1042.9 hPa WNW 16.7 km/h 16.7 km/h 68% 0 mm 466.0 W/m2
12:04 -19.7 °C -24.1 °C 1042.9 hPa WNW 16.7 km/h 16.7 km/h 68% 0 mm 466.0 W/m2
12:09 -19.4 °C -23.6 °C 1042.9 hPa West 5.6 km/h 5.6 km/h 70% 0 mm 466.0 W/m2
12:10 -19.4 °C -23.6 °C 1042.9 hPa West 9.3 km/h 9.3 km/h 70% 0 mm 466.0 W/m2
12:14 -19.5 °C -23.6 °C 1042.9 hPa West 16.1 km/h 16.1 km/h 70% 0 mm 466.0 W/m2
12:18 -19.7 °C -23.7 °C 1042.9 hPa WSW 14.8 km/h 14.8 km/h 70% 0 mm 464.0 W/m2
12:23 -19.8 °C -23.8 °C 1042.9 hPa West 16.7 km/h 16.7 km/h 70% 0 mm 461.0 W/m2
12:26 -19.8 °C -23.8 °C 1042.9 hPa WSW 16.7 km/h 16.7 km/h 70% 0 mm 459.0 W/m2
12:31 -19.7 °C -23.7 °C 1042.9 hPa WSW 13 km/h 13 km/h 71% 0 mm 457.0 W/m2
12:34 -19.7 °C -23.6 °C 1042.9 hPa West 11.3 km/h 11.3 km/h 71% 0 mm 455.0 W/m2
12:39 -19.6 °C -23.5 °C 1042.9 hPa SSW 18.5 km/h 18.5 km/h 71% 0 mm 452.0 W/m2
12:41 -19.7 °C -23.8 °C 1042.5 hPa WSW 16.7 km/h 16.7 km/h 70% 0 mm 452.0 W/m2
12:44 -19.8 °C -23.8 °C 1042.5 hPa WSW 16.7 km/h 16.7 km/h 70% 0 mm 446.0 W/m2
12:47 -19.7 °C -23.7 °C 1042.5 hPa WSW 11.1 km/h 11.1 km/h 71% 0 mm 446.0 W/m2
12:50 -19.7 °C -23.7 °C 1042.5 hPa West 17.7 km/h 17.7 km/h 71% 0 mm 445.0 W/m2
12:54 -19.8 °C -23.7 °C 1042.5 hPa West 14.8 km/h 14.8 km/h 71% 0 mm 441.0 W/m2
12:57 -19.7 °C -23.7 °C 1042.5 hPa West 12.9 km/h 12.9 km/h 71% 0 mm 439.0 W/m2
13:02 -19.8 °C -23.9 °C 1042.5 hPa WSW 14.8 km/h 14.8 km/h 70% 0 mm 434.0 W/m2
13:05 -19.8 °C -23.9 °C 1042.5 hPa West 14.8 km/h 14.8 km/h 70% 0 mm 429.0 W/m2
13:07 -19.8 °C -23.9 °C 1042.5 hPa WSW 8 km/h 9.7 km/h 70% 0 mm 427.0 W/m2
13:12 -19.9 °C -23.9 °C 1042.5 hPa West 16.7 km/h 16.7 km/h 70% 0 mm 420.0 W/m2
13:15 -19.8 °C -23.9 °C 1042.5 hPa WNW 13 km/h 13 km/h 70% 0 mm 418.0 W/m2
13:18 -19.8 °C -23.7 °C 1042.5 hPa WSW 20.4 km/h 20.4 km/h 71% 0 mm 415.0 W/m2
13:23 -19.8 °C -23.7 °C 1042.5 hPa WSW 16.7 km/h 16.7 km/h 71% 0 mm 410.0 W/m2
13:26 -19.8 °C -23.7 °C 1042.5 hPa SW 16.7 km/h 16.7 km/h 71% 0 mm 404.0 W/m2
13:31 -19.7 °C -23.6 °C 1042.5 hPa WSW 17.7 km/h 17.7 km/h 71% 0 mm 397.0 W/m2
13:32 -19.7 °C -23.6 °C 1042.5 hPa West 18.5 km/h 18.5 km/h 71% 0 mm 396.0 W/m2
13:34 -19.7 °C -23.6 °C 1042.5 hPa WSW 19.3 km/h 19.3 km/h 71% 0 mm 392.0 W/m2
13:37 -19.6 °C -23.6 °C 1042.5 hPa WSW 16.7 km/h 16.7 km/h 71% 0 mm 388.0 W/m2
13:42 -19.5 °C -23.4 °C 1042.2 hPa WNW 16.7 km/h 16.7 km/h 71% 0 mm 381.0 W/m2
13:43 -19.4 °C -23.4 °C 1042.2 hPa West 16.7 km/h 16.7 km/h 71% 0 mm 380.0 W/m2
13:45 -19.4 °C -23.2 °C 1042.5 hPa West 20.4 km/h 20.4 km/h 72% 0 mm 376.0 W/m2
13:48 -19.3 °C -23.1 °C 1042.5 hPa West 18.5 km/h 18.5 km/h 72% 0 mm 373.0 W/m2
13:51 -19.4 °C -23.4 °C 1042.2 hPa West 18.5 km/h 18.5 km/h 71% 0 mm 366.0 W/m2
13:53 -19.4 °C -23.3 °C 1042.2 hPa West 16.7 km/h 16.7 km/h 71% 0 mm 362.0 W/m2
13:57 -19.3 °C -23.3 °C 1042.2 hPa WSW 16.1 km/h 16.1 km/h 71% 0 mm 355.0 W/m2
14:02 -19.3 °C -23.3 °C 1042.2 hPa West 18.5 km/h 18.5 km/h 71% 0 mm 348.0 W/m2
14:06 -19.3 °C -23.3 °C 1042.2 hPa WSW 12.9 km/h 12.9 km/h 71% 0 mm 339.0 W/m2
14:07 -19.3 °C -23.3 °C 1042.2 hPa West 20.4 km/h 20.4 km/h 71% 0 mm 336.0 W/m2
14:12 -19.3 °C -23.3 °C 1042.5 hPa WSW 14.8 km/h 14.8 km/h 71% 0 mm 327.0 W/m2
14:13 -19.3 °C -23.2 °C 1042.5 hPa West 9.3 km/h 9.3 km/h 71% 0 mm 327.0 W/m2
14:18 -19.2 °C -23.1 °C 1042.2 hPa WSW 14.8 km/h 14.8 km/h 71% 0 mm 316.0 W/m2
14:23 -19.1 °C -23.1 °C 1042.5 hPa WNW 9.3 km/h 9.3 km/h 71% 0 mm 306.0 W/m2
14:24 -19.1 °C -23 °C 1042.5 hPa West 14.5 km/h 14.5 km/h 71% 0 mm 304.0 W/m2
14:25 -19.1 °C -23 °C 1042.5 hPa West 14.8 km/h 14.8 km/h 71% 0 mm 301.0 W/m2
14:29 -18.9 °C -22.9 °C 1042.5 hPa WNW 13 km/h 13 km/h 71% 0 mm 294.0 W/m2
14:34 -18.8 °C -22.8 °C 1042.5 hPa WSW 16.7 km/h 16.7 km/h 71% 0 mm 281.0 W/m2
14:37 -18.8 °C -22.8 °C 1042.5 hPa West 18.5 km/h 18.5 km/h 71% 0 mm 274.0 W/m2
14:42 -18.9 °C -23.1 °C 1042.5 hPa West 18.5 km/h 18.5 km/h 70% 0 mm 260.0 W/m2
14:43 -18.9 °C -23.1 °C 1042.5 hPa West 18.5 km/h 18.5 km/h 70% 0 mm 257.0 W/m2
14:45 -18.9 °C -23.1 °C 1042.5 hPa West 14.8 km/h 14.8 km/h 70% 0 mm 250.0 W/m2
14:48 -18.9 °C -22.8 °C 1042.5 hPa WNW 18.5 km/h 18.5 km/h 71% 0 mm 243.0 W/m2
14:52 -18.9 °C -23.1 °C 1042.5 hPa West 14.8 km/h 14.8 km/h 70% 0 mm 229.0 W/m2
15:01 -18.9 °C -23.1 °C 1042.5 hPa WSW 14.8 km/h 14.8 km/h 70% 0 mm 204.0 W/m2
15:03 -18.9 °C -22.9 °C 1042.5 hPa WNW 18.5 km/h 18.5 km/h 71% 0 mm 197.0 W/m2
15:08 -19 °C -23.1 °C 1042.5 hPa SW 14.8 km/h 14.8 km/h 70% 0 mm 181.0 W/m2
15:13 -19.2 °C -23.3 °C 1042.5 hPa WSW 14.8 km/h 14.8 km/h 70% 0 mm 163.0 W/m2
15:14 -19.2 °C -23.3 °C 1042.5 hPa West 14.5 km/h 14.5 km/h 70% 0 mm 163.0 W/m2
15:19 -19.3 °C -23.4 °C 1042.5 hPa West 13 km/h 13 km/h 70% 0 mm 144.0 W/m2
15:24 -19.4 °C -23.5 °C 1042.5 hPa WSW 16.7 km/h 16.7 km/h 70% 0 mm 130.0 W/m2
15:26 -19.4 °C -23.6 °C 1042.5 hPa WSW 18.5 km/h 18.5 km/h 70% 0 mm 127.0 W/m2
15:31 -19.5 °C -23.4 °C 1042.9 hPa West 9.3 km/h 9.3 km/h 71% 0 mm 109.0 W/m2
15:32 -19.5 °C -23.4 °C 1042.5 hPa WSW 9.3 km/h 9.3 km/h 71% 0 mm 109.0 W/m2
15:33 -19.5 °C -23.4 °C 1042.5 hPa West 9.7 km/h 9.7 km/h 71% 0 mm 105.0 W/m2
15:38 -19.7 °C -23.7 °C 1042.5 hPa WSW 18.5 km/h 18.5 km/h 71% 0 mm 90.0 W/m2
15:43 -20 °C -23.9 °C 1042.9 hPa WSW 19.3 km/h 19.3 km/h 71% 0 mm 25.0 W/m2
15:45 -20.1 °C -23.8 °C 1042.5 hPa West 18.5 km/h 18.5 km/h 72% 0 mm 23.0 W/m2
15:49 -20.2 °C -23.9 °C 1042.9 hPa West 16.7 km/h 16.7 km/h 72% 0 mm 23.0 W/m2
15:54 -20.2 °C -23.9 °C 1042.9 hPa WSW 13 km/h 13 km/h 72% 0 mm 21.0 W/m2
15:55 -20.2 °C -23.9 °C 1042.9 hPa WSW 13 km/h 13 km/h 72% 0 mm 21.0 W/m2
16:00 -20.2 °C -23.8 °C 1042.9 hPa WSW 18.5 km/h 18.5 km/h 73% 0 mm 19.0 W/m2
16:01 -20.2 °C -23.8 °C 1042.9 hPa WSW 14.8 km/h 14.8 km/h 73% 0 mm 18.0 W/m2
16:06 -20.2 °C -23.8 °C 1042.9 hPa West 16.7 km/h 16.7 km/h 73% 0 mm 16.0 W/m2
16:11 -20.3 °C -23.9 °C 1042.9 hPa West 9.3 km/h 9.3 km/h 73% 0 mm 14.0 W/m2
16:14 -20.3 °C -23.9 °C 1042.9 hPa WSW 5.6 km/h 5.6 km/h 73% 0 mm 12.0 W/m2
16:17 -20.3 °C -23.9 °C 1043.2 hPa West 13 km/h 13 km/h 73% 0 mm 12.0 W/m2
16:21 -20.4 °C -24.1 °C 1043.2 hPa WSW 14.8 km/h 14.8 km/h 73% 0 mm 11.0 W/m2
16:23 -20.4 °C -24.1 °C 1042.9 hPa WSW 18.5 km/h 18.5 km/h 73% 0 mm 9.0 W/m2
16:26 -20.6 °C -24.1 °C 1042.9 hPa WSW 9.3 km/h 9.3 km/h 73% 0 mm 7.0 W/m2
16:28 -20.6 °C -24.2 °C 1043.2 hPa WSW 11.1 km/h 11.1 km/h 73% 0 mm 7.0 W/m2
16:33 -20.8 °C -24.3 °C 1042.9 hPa SW 11.1 km/h 11.1 km/h 73% 0 mm 5.0 W/m2
16:38 -21 °C -24.6 °C 1042.9 hPa WSW 11.1 km/h 11.1 km/h 73% 0 mm 0.0 W/m2
16:40 -21.1 °C -24.6 °C 1042.9 hPa West 12.9 km/h 12.9 km/h 73% 0 mm 0.0 W/m2
16:45 -21.2 °C -24.6 °C 1043.2 hPa West 9.7 km/h 9.7 km/h 74% 0 mm 0.0 W/m2
16:48 -21.2 °C -24.6 °C 1043.2 hPa WSW 13 km/h 13 km/h 74% 0 mm 0.0 W/m2
16:53 -21.3 °C -24.7 °C 1043.2 hPa WSW 13 km/h 13 km/h 74% 0 mm 0.0 W/m2
16:56 -21.3 °C -24.7 °C 1043.2 hPa West 9.3 km/h 9.3 km/h 74% 0 mm 0.0 W/m2
17:01 -21.3 °C -24.6 °C 1043.2 hPa WSW 13 km/h 13 km/h 75% 0 mm 0.0 W/m2
17:02 -21.4 °C -24.7 °C 1043.2 hPa WSW 11.3 km/h 11.3 km/h 75% 0 mm 0.0 W/m2
17:07 -21.4 °C -24.7 °C 1043.2 hPa WSW 9.3 km/h 9.3 km/h 75% 0 mm 0.0 W/m2
17:12 -21.4 °C -24.7 °C 1043.2 hPa West 11.1 km/h 11.1 km/h 75% 0 mm 0.0 W/m2
17:13 -21.4 °C -24.7 °C 1043.2 hPa West 11.1 km/h 11.1 km/h 75% 0 mm 0.0 W/m2
17:18 -21.5 °C -24.7 °C 1043.2 hPa West 11.1 km/h 11.1 km/h 75% 0 mm 0.0 W/m2
17:19 -21.6 °C -24.8 °C 1043.2 hPa West 5.6 km/h 5.6 km/h 75% 0 mm 0.0 W/m2
17:21 -21.6 °C -24.8 °C 1043.2 hPa WSW 8 km/h 8 km/h 75% 0 mm 0.0 W/m2
17:26 -21.7 °C -24.9 °C 1043.6 hPa West 13 km/h 13 km/h 75% 0 mm 0.0 W/m2
17:29 -21.7 °C -24.9 °C 1043.6 hPa West 7.4 km/h 7.4 km/h 75% 0 mm 0.0 W/m2
17:33 -21.7 °C -24.9 °C 1043.6 hPa West 7.4 km/h 7.4 km/h 75% 0 mm 0.0 W/m2
17:37 -21.8 °C -25 °C 1043.6 hPa WSW 9.7 km/h 9.7 km/h 75% 0 mm 0.0 W/m2
17:38 -21.8 °C -25 °C 1043.6 hPa WSW 11.1 km/h 11.1 km/h 75% 0 mm 0.0 W/m2
17:43 -21.8 °C -25.1 °C 1043.6 hPa West 11.1 km/h 11.1 km/h 75% 0 mm 0.0 W/m2
17:48 -21.9 °C -25.1 °C 1043.6 hPa West 7.4 km/h 7.4 km/h 75% 0 mm 0.0 W/m2
17:49 -21.9 °C -25.1 °C 1043.6 hPa West 7.4 km/h 7.4 km/h 75% 0 mm 0.0 W/m2
17:54 -21.9 °C -25.2 °C 1043.6 hPa West 7.4 km/h 7.4 km/h 75% 0 mm 0.0 W/m2
17:57 -22 °C -25.2 °C 1043.6 hPa West 5.6 km/h 5.6 km/h 75% 0 mm 0.0 W/m2
18:00 -22 °C -25.2 °C 1043.6 hPa West 7.4 km/h 7.4 km/h 75% 0 mm 0.0 W/m2
18:03 -22.1 °C -25.2 °C 1043.6 hPa West 8 km/h 8 km/h 76% 0 mm 0.0 W/m2
18:05 -22.1 °C -25.2 °C 1043.6 hPa West 7.4 km/h 7.4 km/h 76% 0 mm 0.0 W/m2
18:10 -22.1 °C -25.2 °C 1043.9 hPa West 7.4 km/h 7.4 km/h 76% 0 mm 0.0 W/m2
18:12 -22.1 °C -25.2 °C 1043.9 hPa West 7.4 km/h 7.4 km/h 76% 0 mm 0.0 W/m2
18:14 -22.1 °C -25.2 °C 1043.9 hPa West 5.6 km/h 5.6 km/h 76% 0 mm 0.0 W/m2
18:17 -22.1 °C -25.2 °C 1043.6 hPa West 9.3 km/h 9.3 km/h 76% 0 mm 0.0 W/m2
18:20 -22.1 °C -25.2 °C 1043.6 hPa West 9.3 km/h 9.3 km/h 76% 0 mm 0.0 W/m2
18:23 -22.1 °C -25.2 °C 1043.6 hPa West 11.1 km/h 11.1 km/h 76% 0 mm 0.0 W/m2
18:27 -22.1 °C -25.2 °C 1043.9 hPa West 7.4 km/h 7.4 km/h 76% 0 mm 0.0 W/m2
18:28 -22.1 °C -25.2 °C 1043.9 hPa West 5.6 km/h 5.6 km/h 76% 0 mm 0.0 W/m2
18:33 -22.2 °C -25.3 °C 1043.6 hPa West 4.8 km/h 4.8 km/h 76% 0 mm 0.0 W/m2
18:34 -22.2 °C -25.3 °C 1043.6 hPa West 7.4 km/h 7.4 km/h 76% 0 mm 0.0 W/m2
18:39 -22.3 °C -25.3 °C 1043.9 hPa West 9.3 km/h 9.3 km/h 76% 0 mm 0.0 W/m2
18:40 -22.3 °C -25.3 °C 1043.9 hPa West 9.3 km/h 9.3 km/h 76% 0 mm 0.0 W/m2
18:45 -22.3 °C -25.3 °C 1043.9 hPa West 14.8 km/h 14.8 km/h 76% 0 mm 0.0 W/m2
18:50 -22.3 °C -25.3 °C 1043.9 hPa West 11.1 km/h 11.1 km/h 76% 0 mm 0.0 W/m2
18:51 -22.3 °C -25.3 °C 1043.9 hPa West 11.1 km/h 11.1 km/h 76% 0 mm 0.0 W/m2
18:56 -22.3 °C -25.3 °C 1043.9 hPa West 9.3 km/h 9.3 km/h 76% 0 mm 0.0 W/m2
19:01 -22.3 °C -25.4 °C 1043.6 hPa WSW 14.5 km/h 14.5 km/h 76% 0 mm 0.0 W/m2
19:02 -22.3 °C -25.4 °C 1043.6 hPa West 24.1 km/h 24.1 km/h 76% 0 mm 0.0 W/m2
19:03 -22.3 °C -25.4 °C 1043.6 hPa WSW 24.1 km/h 24.1 km/h 76% 0 mm 0.0 W/m2
19:07 -22.3 °C -25.5 °C 1043.6 hPa West 14.8 km/h 14.8 km/h 75% 0 mm 0.0 W/m2
19:10 -22.3 °C -25.5 °C 1043.6 hPa West 18.5 km/h 18.5 km/h 75% 0 mm 0.0 W/m2
19:13 -22.3 °C -25.6 °C 1043.6 hPa West 13 km/h 13 km/h 75% 0 mm 0.0 W/m2
19:17 -22.4 °C -25.7 °C 1043.6 hPa WSW 9.7 km/h 9.7 km/h 75% 0 mm 0.0 W/m2
19:18 -22.4 °C -25.5 °C 1043.6 hPa WSW 11.1 km/h 11.1 km/h 76% 0 mm 0.0 W/m2
19:23 -22.4 °C -25.5 °C 1043.6 hPa WSW 9.7 km/h 9.7 km/h 76% 0 mm 0.0 W/m2
19:25 -22.5 °C -25.6 °C 1043.6 hPa West 13 km/h 13 km/h 76% 0 mm 0.0 W/m2
19:30 -22.5 °C -25.6 °C 1043.6 hPa West 14.8 km/h 14.8 km/h 76% 0 mm 0.0 W/m2
19:31 -22.5 °C -25.6 °C 1043.6 hPa West 14.8 km/h 14.8 km/h 76% 0 mm 0.0 W/m2
19:33 -22.5 °C -25.4 °C 1043.6 hPa West 6.4 km/h 6.4 km/h 77% 0 mm 0.0 W/m2
19:37 -22.6 °C -25.5 °C 1043.6 hPa West 11.1 km/h 11.1 km/h 77% 0 mm 0.0 W/m2
19:39 -22.6 °C -25.6 °C 1043.6 hPa WSW 9.7 km/h 9.7 km/h 77% 0 mm 0.0 W/m2
19:40 -22.7 °C -25.6 °C 1043.6 hPa West 13 km/h 13 km/h 77% 0 mm 0.0 W/m2
19:43 -22.6 °C -25.6 °C 1043.6 hPa WSW 13 km/h 13 km/h 77% 0 mm 0.0 W/m2
19:46 -22.7 °C -25.6 °C 1043.6 hPa West 7.4 km/h 7.4 km/h 77% 0 mm 0.0 W/m2
19:49 -22.6 °C -25.6 °C 1043.6 hPa WSW 13 km/h 13 km/h 77% 0 mm 0.0 W/m2
19:51 -22.6 °C -25.6 °C 1043.6 hPa West 14.8 km/h 14.8 km/h 77% 0 mm 0.0 W/m2
19:56 -22.6 °C -25.3 °C 1043.6 hPa WSW 9.3 km/h 9.3 km/h 78% 0 mm 0.0 W/m2
19:57 -22.6 °C -25.3 °C 1043.6 hPa WSW 11.1 km/h 11.1 km/h 78% 0 mm 0.0 W/m2
20:02 -22.7 °C -25.7 °C 1043.6 hPa West 11.1 km/h 11.1 km/h 77% 0 mm 0.0 W/m2
20:03 -22.8 °C -25.7 °C 1043.6 hPa WSW 9.7 km/h 9.7 km/h 77% 0 mm 0.0 W/m2
20:08 -22.9 °C -25.9 °C 1043.6 hPa WSW 11.3 km/h 11.3 km/h 77% 0 mm 0.0 W/m2
20:11 -23 °C -25.9 °C 1043.6 hPa WSW 9.3 km/h 9.3 km/h 77% 0 mm 0.0 W/m2
20:14 -23.1 °C -25.8 °C 1043.6 hPa West 5.6 km/h 5.6 km/h 78% 0 mm 0.0 W/m2
20:19 -23.1 °C -25.9 °C 1043.6 hPa West 8 km/h 8 km/h 78% 0 mm 0.0 W/m2
20:24 -23.1 °C -25.9 °C 1043.6 hPa WNW 5.6 km/h 5.6 km/h 78% 0 mm 0.0 W/m2
20:29 -23.1 °C -25.8 °C 1043.6 hPa West 9.7 km/h 9.7 km/h 78% 0 mm 0.0 W/m2
20:32 -23 °C -25.8 °C 1043.6 hPa WNW 11.1 km/h 11.1 km/h 78% 0 mm 0.0 W/m2
20:34 -23 °C -25.8 °C 1043.6 hPa West 9.3 km/h 9.3 km/h 78% 0 mm 0.0 W/m2
20:37 -22.9 °C -25.5 °C 1043.6 hPa West 11.1 km/h 11.1 km/h 79% 0 mm 0.0 W/m2
20:42 -22.8 °C -25.6 °C 1043.6 hPa West 9.3 km/h 9.3 km/h 78% 0 mm 0.0 W/m2
20:43 -22.8 °C -25.6 °C 1043.6 hPa West 9.7 km/h 9.7 km/h 78% 0 mm 0.0 W/m2
20:48 -22.8 °C -25.6 °C 1043.6 hPa WNW 7.4 km/h 7.4 km/h 78% 0 mm 0.0 W/m2
20:50 -22.8 °C -25.6 °C 1043.6 hPa West 13 km/h 13 km/h 78% 0 mm 0.0 W/m2
20:53 -22.8 °C -25.6 °C 1043.6 hPa WSW 9.7 km/h 9.7 km/h 78% 0 mm 0.0 W/m2
20:58 -22.8 °C -25.6 °C 1043.6 hPa West 11.3 km/h 11.3 km/h 78% 0 mm 0.0 W/m2
21:03 -22.8 °C -25.6 °C 1043.6 hPa West 7.4 km/h 7.4 km/h 78% 0 mm 0.0 W/m2
21:06 -22.8 °C -25.7 °C 1043.6 hPa West 7.4 km/h 7.4 km/h 77% 0 mm 0.0 W/m2
21:11 -22.8 °C -25.8 °C 1043.6 hPa West 6.4 km/h 6.4 km/h 77% 0 mm 0.0 W/m2
21:17 -22.8 °C -25.6 °C 1043.2 hPa West 7.4 km/h 7.4 km/h 78% 0 mm 0.0 W/m2
21:22 -22.8 °C -25.6 °C 1043.2 hPa West 9.3 km/h 9.3 km/h 78% 0 mm 0.0 W/m2
21:27 -22.7 °C -25.5 °C 1043.2 hPa WNW 13 km/h 13 km/h 78% 0 mm 0.0 W/m2
21:32 -22.7 °C -25.4 °C 1043.2 hPa WSW 9.7 km/h 9.7 km/h 78% 0 mm 0.0 W/m2
21:37 -22.6 °C -25.6 °C 1043.6 hPa West 9.3 km/h 9.3 km/h 77% 0 mm 0.0 W/m2
21:40 -22.7 °C -25.6 °C 1043.2 hPa WSW 11.1 km/h 11.1 km/h 77% 0 mm 0.0 W/m2
21:43 -22.7 °C -25.7 °C 1043.2 hPa WSW 9.3 km/h 9.3 km/h 77% 0 mm 0.0 W/m2
21:48 -22.9 °C -25.9 °C 1043.6 hPa West 11.3 km/h 11.3 km/h 77% 0 mm 0.0 W/m2
21:49 -22.9 °C -25.9 °C 1043.2 hPa West 11.1 km/h 11.1 km/h 77% 0 mm 0.0 W/m2
21:51 -23.1 °C -25.9 °C 1043.6 hPa WSW 11.1 km/h 11.1 km/h 77% 0 mm 0.0 W/m2
21:56 -23.1 °C -25.9 °C 1043.2 hPa WSW 14.8 km/h 14.8 km/h 77% 0 mm 0.0 W/m2
22:01 -23.1 °C -26 °C 1043.6 hPa West 11.1 km/h 11.1 km/h 77% 0 mm 0.0 W/m2
22:03 -23.1 °C -25.9 °C 1043.2 hPa West 13 km/h 13 km/h 78% 0 mm 0.0 W/m2
22:08 -23.1 °C -25.9 °C 1043.2 hPa WSW 13 km/h 13 km/h 78% 0 mm 0.0 W/m2
22:14 -23.1 °C -25.8 °C 1043.2 hPa West 8 km/h 8 km/h 78% 0 mm 0.0 W/m2
22:15 -23.1 °C -25.8 °C 1043.2 hPa West 14.8 km/h 14.8 km/h 78% 0 mm 0.0 W/m2
22:20 -23.1 °C -25.8 °C 1043.2 hPa WSW 6.4 km/h 7.9 km/h 78% 0 mm 0.0 W/m2
22:21 -23.1 °C -25.8 °C 1043.2 hPa WSW 13 km/h 13 km/h 78% 0 mm 0.0 W/m2
22:25 -23.1 °C -25.8 °C 1043.2 hPa WSW 9.3 km/h 9.3 km/h 78% 0 mm 0.0 W/m2
22:30 -23.1 °C -25.9 °C 1043.2 hPa WSW 14.5 km/h 14.5 km/h 78% 0 mm 0.0 W/m2
22:31 -23.1 °C -25.9 °C 1043.2 hPa West 16.7 km/h 16.7 km/h 78% 0 mm 0.0 W/m2
22:33 -23.1 °C -25.9 °C 1043.2 hPa WSW 9.3 km/h 9.3 km/h 78% 0 mm 0.0 W/m2
22:38 -23.2 °C -26 °C 1043.2 hPa SW 8 km/h 8 km/h 78% 0 mm 0.0 W/m2
22:42 -23.2 °C -26 °C 1043.2 hPa WSW 13 km/h 13 km/h 78% 0 mm 0.0 W/m2
22:44 -23.3 °C -25.9 °C 1043.2 hPa WSW 9.7 km/h 9.7 km/h 79% 0 mm 0.0 W/m2
22:48 -23.3 °C -25.9 °C 1043.2 hPa WSW 9.3 km/h 9.3 km/h 79% 0 mm 0.0 W/m2
22:50 -23.3 °C -25.9 °C 1043.2 hPa West 11.3 km/h 11.3 km/h 79% 0 mm 0.0 W/m2
22:55 -23.3 °C -25.9 °C 1043.2 hPa West 13 km/h 13 km/h 79% 0 mm 0.0 W/m2
22:58 -23.4 °C -26 °C 1043.2 hPa WSW 5.6 km/h 5.6 km/h 79% 0 mm 0.0 W/m2
23:00 -23.4 °C -26.1 °C 1043.2 hPa WSW 7.4 km/h 7.4 km/h 79% 0 mm 0.0 W/m2
23:05 -23.5 °C -26.1 °C 1043.2 hPa West 7.4 km/h 7.4 km/h 79% 0 mm 0.0 W/m2
23:06 -23.5 °C -26.1 °C 1043.2 hPa West 3.7 km/h 3.7 km/h 79% 0 mm 0.0 W/m2
23:11 -23.6 °C -26.2 °C 1043.2 hPa West 7.4 km/h 7.4 km/h 79% 0 mm 0.0 W/m2
23:12 -23.6 °C -26.2 °C 1043.2 hPa West 3.7 km/h 3.7 km/h 79% 0 mm 0.0 W/m2
23:14 -23.6 °C -26.1 °C 1043.2 hPa West 6.4 km/h 6.4 km/h 80% 0 mm 0.0 W/m2
23:19 -23.6 °C -26.1 °C 1043.2 hPa WSW 6.4 km/h 6.4 km/h 80% 0 mm 0.0 W/m2
23:21 -23.6 °C -26.1 °C 1043.2 hPa WSW 9.3 km/h 9.3 km/h 80% 0 mm 0.0 W/m2
23:23 -23.6 °C -26.1 °C 1043.2 hPa West 9.3 km/h 9.3 km/h 80% 0 mm 0.0 W/m2
23:26 -23.7 °C -26.3 °C 1042.9 hPa WSW 9.3 km/h 9.3 km/h 79% 0 mm 0.0 W/m2
23:31 -23.8 °C -26.4 °C 1042.9 hPa WSW 13 km/h 13 km/h 79% 0 mm 0.0 W/m2
23:32 -23.8 °C -26.4 °C 1042.9 hPa West 14.8 km/h 14.8 km/h 79% 0 mm 0.0 W/m2
23:33 -23.8 °C -26.4 °C 1042.9 hPa WSW 11.1 km/h 11.1 km/h 79% 0 mm 0.0 W/m2
23:38 -23.8 °C -26.3 °C 1042.9 hPa WSW 9.3 km/h 9.3 km/h 80% 0 mm 0.0 W/m2
23:41 -23.8 °C -26.3 °C 1042.9 hPa West 9.3 km/h 9.3 km/h 80% 0 mm 0.0 W/m2
23:44 -23.8 °C -26.3 °C 1042.9 hPa West 7.4 km/h 7.4 km/h 80% 0 mm 0.0 W/m2
23:46 -23.8 °C -26.3 °C 1042.9 hPa West 7.4 km/h 7.4 km/h 80% 0 mm 0.0 W/m2
23:49 -23.8 °C -26.3 °C 1042.9 hPa West 9.7 km/h 9.7 km/h 80% 0 mm 0.0 W/m2
23:54 -23.7 °C -26.2 °C 1042.9 hPa West 8 km/h 8 km/h 80% 0 mm 0.0 W/m2
23:55 -23.7 °C -26.2 °C 1042.9 hPa West 11.1 km/h 11.1 km/h 80% 0 mm 0.0 W/m2
Bourbonnais, Illinois, USA
Compliments of Weather Underground - 4 mb